Time,TemperatureF,DewpointF,PressureIn,WindDirection,WindDirectionDegrees,WindSpeedMPH,WindSpeedGustMPH,Humidity,HourlyPrecipIn,Conditions,Clouds,dailyrainin,SoftwareType,DateUTC
2013-04-30 00:00:00,41.0,13.0,-100.00,NW,321,2.0,10.0,32,-99.99,,,-99.99,,2013-04-30 06:00:00,
2013-04-30 00:42:00,41.0,13.0,-100.00,NW,321,2.0,10.0,32,-99.99,,,-99.99,,2013-04-30 06:42:00,
2013-04-30 00:52:00,41.0,13.0,-100.00,NW,321,2.0,10.0,32,-99.99,,,-99.99,,2013-04-30 06:52:00,
2013-04-30 01:00:00,42.0,14.0,-100.00,NW,314,3.0,15.0,32,-99.99,,,-99.99,,2013-04-30 07:00:00,
2013-04-30 01:42:00,42.0,14.0,-100.00,NW,314,3.0,15.0,32,-99.99,,,-99.99,,2013-04-30 07:42:00,
2013-04-30 01:52:00,42.0,14.0,-100.00,NW,314,3.0,15.0,32,-99.99,,,-99.99,,2013-04-30 07:52:00,
2013-04-30 02:00:00,39.0,15.0,-100.00,NNW,342,1.0,5.0,37,-99.99,,,-99.99,,2013-04-30 08:00:00,
2013-04-30 02:42:00,39.0,15.0,-100.00,NNW,342,1.0,5.0,37,-99.99,,,-99.99,,2013-04-30 08:42:00,
2013-04-30 02:52:00,39.0,15.0,-100.00,NNW,342,1.0,5.0,37,-99.99,,,-99.99,,2013-04-30 08:52:00,
2013-04-30 03:00:00,39.0,15.0,-100.00,WNW,303,1.0,7.0,37,-99.99,,,-99.99,,2013-04-30 09:00:00,
2013-04-30 03:43:00,39.0,15.0,-100.00,WNW,303,1.0,7.0,37,-99.99,,,-99.99,,2013-04-30 09:43:00,
2013-04-30 03:52:00,39.0,15.0,-100.00,WNW,303,1.0,7.0,37,-99.99,,,-99.99,,2013-04-30 09:52:00,
2013-04-30 04:00:00,40.0,16.0,-100.00,WSW,255,2.0,12.0,37,-99.99,,,-99.99,,2013-04-30 10:00:00,
2013-04-30 04:41:00,40.0,16.0,-100.00,WSW,255,2.0,12.0,37,-99.99,,,-99.99,,2013-04-30 10:41:00,
2013-04-30 04:52:00,40.0,16.0,-100.00,WSW,255,2.0,12.0,37,-99.99,,,-99.99,,2013-04-30 10:52:00,
2013-04-30 05:00:00,40.0,17.0,-100.00,North,353,1.0,8.0,38,-99.99,,,-99.99,,2013-04-30 11:00:00,
2013-04-30 05:42:00,40.0,17.0,-100.00,North,353,1.0,8.0,38,-99.99,,,-99.99,,2013-04-30 11:42:00,
2013-04-30 05:51:00,40.0,17.0,-100.00,North,353,1.0,8.0,38,-99.99,,,-99.99,,2013-04-30 11:51:00,
2013-04-30 06:00:00,40.0,16.0,-100.00,WSW,255,1.0,9.0,36,-99.99,,,-99.99,,2013-04-30 12:00:00,
2013-04-30 06:41:00,40.0,16.0,-100.00,WSW,255,1.0,9.0,36,-99.99,,,-99.99,,2013-04-30 12:41:00,
2013-04-30 06:51:00,40.0,16.0,-100.00,WSW,255,1.0,9.0,36,-99.99,,,-99.99,,2013-04-30 12:51:00,
2013-04-30 07:00:00,42.0,16.0,-100.00,WNW,285,2.0,12.0,34,-99.99,,,-99.99,,2013-04-30 13:00:00,
2013-04-30 07:41:00,42.0,16.0,-100.00,WNW,285,2.0,12.0,34,-99.99,,,-99.99,,2013-04-30 13:41:00,
2013-04-30 07:52:00,42.0,16.0,-100.00,WNW,285,2.0,12.0,34,-99.99,,,-99.99,,2013-04-30 13:52:00,
2013-04-30 08:00:00,43.0,15.0,-100.00,WNW,300,3.0,16.0,32,-99.99,,,-99.99,,2013-04-30 14:00:00,
2013-04-30 08:41:00,43.0,15.0,-100.00,WNW,300,3.0,16.0,32,-99.99,,,-99.99,,2013-04-30 14:41:00,
2013-04-30 08:52:00,43.0,15.0,-100.00,WNW,300,3.0,16.0,32,-99.99,,,-99.99,,2013-04-30 14:52:00,
2013-04-30 09:00:00,45.0,15.0,-100.00,WNW,296,5.0,23.0,30,-99.99,,,-99.99,,2013-04-30 15:00:00,
2013-04-30 09:42:00,45.0,15.0,-100.00,WNW,296,5.0,23.0,30,-99.99,,,-99.99,,2013-04-30 15:42:00,
2013-04-30 09:52:00,45.0,15.0,-100.00,WNW,296,5.0,23.0,30,-99.99,,,-99.99,,2013-04-30 15:52:00,
2013-04-30 10:00:00,47.0,16.0,-100.00,WSW,242,7.0,25.0,29,-99.99,,,-99.99,,2013-04-30 16:00:00,
2013-04-30 10:42:00,47.0,16.0,-100.00,WSW,242,7.0,25.0,29,-99.99,,,-99.99,,2013-04-30 16:42:00,
2013-04-30 10:52:00,47.0,16.0,-100.00,WSW,242,7.0,25.0,29,-99.99,,,-99.99,,2013-04-30 16:52:00,
2013-04-30 11:00:00,49.0,16.0,-100.00,WSW,237,8.0,22.0,27,-99.99,,,-99.99,,2013-04-30 17:00:00,
2013-04-30 11:42:00,49.0,16.0,-100.00,WSW,237,8.0,22.0,27,-99.99,,,-99.99,,2013-04-30 17:42:00,
2013-04-30 11:52:00,49.0,16.0,-100.00,WSW,237,8.0,22.0,27,-99.99,,,-99.99,,2013-04-30 17:52:00,
2013-04-30 12:00:00,47.0,18.0,-100.00,SW,229,8.0,23.0,31,-99.99,,,-99.99,,2013-04-30 18:00:00,
2013-04-30 12:42:00,47.0,18.0,-100.00,SW,229,8.0,23.0,31,-99.99,,,-99.99,,2013-04-30 18:42:00,
2013-04-30 12:52:00,47.0,18.0,-100.00,SW,229,8.0,23.0,31,-99.99,,,-99.99,,2013-04-30 18:52:00,
2013-04-30 13:00:00,44.0,20.0,-100.00,WNW,287,7.0,33.0,38,-99.99,,,-99.99,,2013-04-30 19:00:00,
2013-04-30 13:42:00,44.0,20.0,-100.00,WNW,287,7.0,33.0,38,-99.99,,,-99.99,,2013-04-30 19:42:00,
2013-04-30 13:52:00,44.0,20.0,-100.00,WNW,287,7.0,33.0,38,-99.99,,,-99.99,,2013-04-30 19:52:00,
2013-04-30 14:00:00,46.0,20.0,-100.00,West,267,6.0,20.0,36,-99.99,,,-99.99,,2013-04-30 20:00:00,
2013-04-30 14:42:00,46.0,20.0,-100.00,West,267,6.0,20.0,36,-99.99,,,-99.99,,2013-04-30 20:42:00,
2013-04-30 14:52:00,46.0,20.0,-100.00,West,267,6.0,20.0,36,-99.99,,,-99.99,,2013-04-30 20:52:00,
2013-04-30 15:00:00,44.0,23.0,-100.00,West,272,7.0,30.0,43,-99.99,,,-99.99,,2013-04-30 21:00:00,
2013-04-30 15:42:00,44.0,23.0,-100.00,West,272,7.0,30.0,43,-99.99,,,-99.99,,2013-04-30 21:42:00,
2013-04-30 15:53:00,44.0,23.0,-100.00,West,272,7.0,30.0,43,-99.99,,,-99.99,,2013-04-30 21:53:00,
2013-04-30 16:00:00,43.0,25.0,-100.00,WNW,284,4.0,16.0,49,-99.99,,,-99.99,,2013-04-30 22:00:00,
2013-04-30 16:42:00,43.0,25.0,-100.00,WNW,284,4.0,16.0,49,-99.99,,,-99.99,,2013-04-30 22:42:00,
2013-04-30 16:53:00,43.0,25.0,-100.00,WNW,284,4.0,16.0,49,-99.99,,,-99.99,,2013-04-30 22:53:00,
2013-04-30 17:00:00,46.0,26.0,-100.00,WSW,249,5.0,18.0,45,-99.99,,,-99.99,,2013-04-30 23:00:00,
2013-04-30 17:42:00,46.0,26.0,-100.00,WSW,249,5.0,18.0,45,-99.99,,,-99.99,,2013-04-30 23:42:00,
2013-04-30 17:52:00,46.0,26.0,-100.00,WSW,249,5.0,18.0,45,-99.99,,,-99.99,,2013-04-30 23:52:00,
2013-04-30 18:00:00,49.0,20.0,-100.00,SSW,207,4.0,15.0,31,-99.99,,,-99.99,,2013-05-01 00:00:00,
2013-04-30 18:42:00,49.0,20.0,-100.00,SSW,207,4.0,15.0,31,-99.99,,,-99.99,,2013-05-01 00:42:00,
2013-04-30 18:52:00,49.0,20.0,-100.00,SSW,207,4.0,15.0,31,-99.99,,,-99.99,,2013-05-01 00:52:00,
2013-04-30 19:00:00,46.0,17.0,-100.00,WSW,241,7.0,26.0,31,-99.99,,,-99.99,,2013-05-01 01:00:00,
2013-04-30 19:42:00,46.0,17.0,-100.00,WSW,241,7.0,26.0,31,-99.99,,,-99.99,,2013-05-01 01:42:00,
2013-04-30 19:52:00,46.0,17.0,-100.00,WSW,241,7.0,26.0,31,-99.99,,,-99.99,,2013-05-01 01:52:00,
2013-04-30 20:00:00,45.0,18.0,-100.00,WSW,256,5.0,15.0,33,-99.99,,,-99.99,,2013-05-01 02:00:00,
2013-04-30 20:42:00,45.0,18.0,-100.00,WSW,256,5.0,15.0,33,-99.99,,,-99.99,,2013-05-01 02:42:00,
2013-04-30 20:52:00,45.0,18.0,-100.00,WSW,256,5.0,15.0,33,-99.99,,,-99.99,,2013-05-01 02:52:00,
2013-04-30 21:00:00,41.0,25.0,-100.00,NNW,346,3.0,11.0,53,-99.99,,,-99.99,,2013-05-01 03:00:00,
2013-04-30 21:43:00,41.0,25.0,-100.00,NNW,346,3.0,11.0,53,-99.99,,,-99.99,,2013-05-01 03:43:00,
2013-04-30 21:53:00,41.0,25.0,-100.00,NNW,346,3.0,11.0,53,-99.99,,,-99.99,,2013-05-01 03:53:00,
2013-04-30 22:00:00,36.0,29.0,-100.00,North,353,4.0,13.0,77,-99.99,,,-99.99,,2013-05-01 04:00:00,
2013-04-30 22:43:00,36.0,29.0,-100.00,North,353,4.0,13.0,77,-99.99,,,-99.99,,2013-05-01 04:43:00,
2013-04-30 22:52:00,36.0,29.0,-100.00,North,353,4.0,13.0,77,-99.99,,,-99.99,,2013-05-01 04:52:00,
2013-04-30 23:00:00,33.0,30.0,-100.00,North,359,1.0,6.0,89,-99.99,,,-99.99,,2013-05-01 05:00:00,
2013-04-30 23:42:00,33.0,30.0,-100.00,North,359,1.0,6.0,89,-99.99,,,-99.99,,2013-05-01 05:42:00,
2013-04-30 23:52:00,33.0,30.0,-100.00,North,359,1.0,6.0,89,-99.99,,,-99.99,,2013-05-01 05:52:00,